Terminal Aerodrome Forecast
Issued by NWS

Home | Current Version | Previous Version | Text Only | Print | Product List | Glossary On
Versions: 1 2 3 4 5 6 7 8 9 10 11 12 13
000
FTUS44 KBMX 011700
TAFMGM
TAF
KMGM 011738Z 0118/0218 13004KT 6SM -RA BR OVC013
     FM012000 15010KT P6SM SCT007 BKN015
     FM020100 28009KT 5SM -RA BR OVC015
     FM020600 28010G20KT P6SM OVC025=

USA.gov is the U.S. government's official web portal to all federal, state and local government web resources and services.